Time,TemperatureF,DewpointF,PressureIn,WindDirection,WindDirectionDegrees,WindSpeedMPH,WindSpeedGustMPH,Humidity,HourlyPrecipIn,Conditions,Clouds,dailyrainin,SoftwareType,DateUTC
2013-03-25 00:03:00,70.0,68.0,29.77,WSW,250,4.0,9.0,93,0.00,,,0.00,,2013-03-25 04:03:00,
2013-03-25 00:13:00,70.0,68.0,29.77,WSW,250,4.0,9.0,93,0.00,,,0.00,,2013-03-25 04:13:00,
2013-03-25 00:23:00,69.0,67.0,29.77,WNW,290,5.0,8.0,93,0.00,,,0.00,,2013-03-25 04:23:00,
2013-03-25 00:33:00,69.0,67.0,29.76,West,263,4.0,8.0,92,0.00,,,0.00,,2013-03-25 04:33:00,
2013-03-25 00:43:00,69.0,67.0,29.76,West,263,4.0,8.0,92,0.00,,,0.00,,2013-03-25 04:43:00,
2013-03-25 00:52:00,69.0,67.0,29.76,West,263,3.0,8.0,92,0.00,,,0.00,,2013-03-25 04:52:00,
2013-03-25 01:03:00,68.0,66.0,29.76,WSW,251,2.0,7.0,93,0.00,,,0.00,,2013-03-25 05:03:00,
2013-03-25 01:12:00,68.0,66.0,29.76,WSW,251,2.0,7.0,93,0.00,,,0.00,,2013-03-25 05:12:00,
2013-03-25 01:22:00,67.0,65.0,29.76,WNW,286,4.0,8.0,94,0.00,,,0.00,,2013-03-25 05:22:00,
2013-03-25 01:33:00,67.0,65.0,29.76,WNW,286,4.0,8.0,94,0.00,,,0.00,,2013-03-25 05:33:00,
2013-03-25 01:42:00,67.0,65.0,29.76,WNW,286,4.0,8.0,94,0.00,,,0.00,,2013-03-25 05:42:00,
2013-03-25 01:52:00,66.0,65.0,29.76,WSW,244,3.0,6.0,95,0.00,,,0.00,,2013-03-25 05:52:00,
2013-03-25 02:02:00,66.0,65.0,29.76,WNW,292,4.0,10.0,95,0.00,,,0.00,,2013-03-25 06:02:00,
2013-03-25 02:12:00,66.0,65.0,29.76,WNW,292,4.0,10.0,95,0.00,,,0.00,,2013-03-25 06:12:00,
2013-03-25 02:22:00,66.0,65.0,29.76,WNW,292,4.0,9.0,95,0.00,,,0.00,,2013-03-25 06:22:00,
2013-03-25 02:32:00,66.0,65.0,29.76,WSW,240,4.0,9.0,95,0.00,,,0.00,,2013-03-25 06:32:00,
2013-03-25 02:42:00,66.0,65.0,29.76,WSW,240,4.0,9.0,95,0.00,,,0.00,,2013-03-25 06:42:00,
2013-03-25 02:52:00,65.0,64.0,29.77,WNW,282,4.0,8.0,95,0.00,,,0.00,,2013-03-25 06:52:00,
2013-03-25 03:02:00,65.0,64.0,29.77,West,262,4.0,8.0,95,0.00,,,0.00,,2013-03-25 07:02:00,
2013-03-25 03:12:00,65.0,64.0,29.77,West,262,4.0,8.0,95,0.00,,,0.00,,2013-03-25 07:12:00,
2013-03-25 03:22:00,65.0,64.0,29.77,West,264,5.0,10.0,95,0.00,,,0.00,,2013-03-25 07:22:00,
2013-03-25 03:32:00,65.0,63.0,29.77,West,273,4.0,9.0,94,0.00,,,0.00,,2013-03-25 07:32:00,
2013-03-25 03:42:00,65.0,63.0,29.77,West,273,4.0,9.0,94,0.00,,,0.00,,2013-03-25 07:42:00,
2013-03-25 03:52:00,65.0,63.0,29.77,West,281,5.0,12.0,94,0.00,,,0.00,,2013-03-25 07:52:00,
2013-03-25 04:03:00,65.0,63.0,29.77,WNW,298,5.0,11.0,93,0.00,,,0.00,,2013-03-25 08:03:00,
2013-03-25 04:12:00,65.0,63.0,29.77,WNW,298,5.0,11.0,93,0.00,,,0.00,,2013-03-25 08:12:00,
2013-03-25 04:23:00,65.0,63.0,29.77,West,281,6.0,12.0,93,0.00,,,0.00,,2013-03-25 08:23:00,
2013-03-25 04:32:00,65.0,63.0,29.77,West,277,6.0,14.0,93,0.00,,,0.00,,2013-03-25 08:32:00,
2013-03-25 04:43:00,65.0,63.0,29.77,West,277,6.0,14.0,93,0.00,,,0.00,,2013-03-25 08:43:00,
2013-03-25 04:52:00,65.0,63.0,29.77,WNW,290,4.0,11.0,92,0.00,,,0.00,,2013-03-25 08:52:00,
2013-03-25 05:02:00,64.0,62.0,29.77,WNW,284,3.0,11.0,92,0.00,,,0.00,,2013-03-25 09:02:00,
2013-03-25 05:12:00,64.0,62.0,29.77,WNW,284,3.0,11.0,92,0.00,,,0.00,,2013-03-25 09:12:00,
2013-03-25 05:22:00,64.0,62.0,29.78,West,263,4.0,13.0,92,0.00,,,0.00,,2013-03-25 09:22:00,
2013-03-25 05:33:00,63.0,61.0,29.78,WNW,303,4.0,9.0,92,0.00,,,0.00,,2013-03-25 09:33:00,
2013-03-25 05:43:00,63.0,61.0,29.78,WNW,303,4.0,9.0,92,0.00,,,0.00,,2013-03-25 09:43:00,
2013-03-25 05:52:00,62.0,60.0,29.78,West,275,5.0,9.0,93,0.00,,,0.00,,2013-03-25 09:52:00,
2013-03-25 06:03:00,62.0,60.0,29.78,NW,310,4.0,10.0,93,0.00,,,0.00,,2013-03-25 10:03:00,
2013-03-25 06:12:00,62.0,60.0,29.78,NW,310,4.0,10.0,93,0.00,,,0.00,,2013-03-25 10:12:00,
2013-03-25 06:23:00,62.0,60.0,29.79,West,275,4.0,11.0,93,0.00,,,0.00,,2013-03-25 10:23:00,
2013-03-25 06:33:00,62.0,60.0,29.80,WNW,292,4.0,10.0,92,0.00,,,0.00,,2013-03-25 10:33:00,
2013-03-25 06:42:00,62.0,60.0,29.80,WNW,292,4.0,10.0,92,0.00,,,0.00,,2013-03-25 10:42:00,
2013-03-25 06:53:00,61.0,59.0,29.80,West,266,2.0,9.0,93,0.00,,,0.00,,2013-03-25 10:53:00,
2013-03-25 07:03:00,61.0,59.0,29.81,WNW,283,4.0,13.0,92,0.00,,,0.00,,2013-03-25 11:03:00,
2013-03-25 07:12:00,61.0,59.0,29.81,WNW,283,4.0,13.0,92,0.00,,,0.00,,2013-03-25 11:12:00,
2013-03-25 07:23:00,61.0,59.0,29.81,WNW,295,4.0,9.0,93,0.00,,,0.00,,2013-03-25 11:23:00,
2013-03-25 07:32:00,60.0,56.0,29.83,WNW,296,4.0,12.0,88,0.00,,,0.00,,2013-03-25 11:32:00,
2013-03-25 07:42:00,60.0,56.0,29.83,WNW,296,4.0,12.0,88,0.00,,,0.00,,2013-03-25 11:42:00,
2013-03-25 07:52:00,60.0,56.0,29.83,WNW,296,4.0,12.0,88,0.00,,,0.00,,2013-03-25 11:52:00,
2013-03-25 08:03:00,58.0,52.0,29.84,NNW,331,4.0,12.0,79,0.00,,,0.00,,2013-03-25 12:03:00,
2013-03-25 08:13:00,58.0,52.0,29.84,NNW,331,4.0,12.0,79,0.00,,,0.00,,2013-03-25 12:13:00,
2013-03-25 08:23:00,58.0,51.0,29.85,NNW,327,6.0,11.0,78,0.00,,,0.00,,2013-03-25 12:23:00,
2013-03-25 08:33:00,58.0,51.0,29.86,NNW,331,5.0,13.0,77,0.00,,,0.00,,2013-03-25 12:33:00,
2013-03-25 08:43:00,58.0,51.0,29.86,NNW,331,5.0,13.0,77,0.00,,,0.00,,2013-03-25 12:43:00,
2013-03-25 08:53:00,59.0,51.0,29.87,WNW,290,6.0,15.0,76,0.00,,,0.00,,2013-03-25 12:53:00,
2013-03-25 09:03:00,59.0,51.0,29.87,WNW,290,6.0,15.0,76,0.00,,,0.00,,2013-03-25 13:03:00,
2013-03-25 09:13:00,59.0,51.0,29.87,WNW,290,6.0,15.0,76,0.00,,,0.00,,2013-03-25 13:13:00,
2013-03-25 09:23:00,60.0,52.0,29.88,NW,318,6.0,13.0,74,0.00,,,0.00,,2013-03-25 13:23:00,
2013-03-25 09:32:00,61.0,52.0,29.89,West,277,5.0,15.0,71,0.00,,,0.00,,2013-03-25 13:32:00,
2013-03-25 09:43:00,61.0,52.0,29.89,West,277,5.0,15.0,71,0.00,,,0.00,,2013-03-25 13:43:00,
2013-03-25 09:52:00,61.0,50.0,29.90,North,355,7.0,17.0,66,0.00,,,0.00,,2013-03-25 13:52:00,
2013-03-25 10:03:00,62.0,50.0,29.91,NW,311,5.0,16.0,65,0.00,,,0.00,,2013-03-25 14:03:00,
2013-03-25 10:12:00,62.0,50.0,29.91,NW,311,5.0,16.0,65,0.00,,,0.00,,2013-03-25 14:12:00,
2013-03-25 10:23:00,63.0,51.0,29.91,NW,318,6.0,19.0,64,0.00,,,0.00,,2013-03-25 14:23:00,
2013-03-25 10:32:00,64.0,50.0,29.92,NW,311,6.0,14.0,61,0.00,,,0.00,,2013-03-25 14:32:00,
2013-03-25 10:43:00,64.0,50.0,29.92,NW,311,6.0,14.0,61,0.00,,,0.00,,2013-03-25 14:43:00,
2013-03-25 10:52:00,64.0,49.0,29.93,WNW,296,7.0,17.0,58,0.00,,,0.00,,2013-03-25 14:52:00,
2013-03-25 11:03:00,65.0,49.0,29.94,West,267,5.0,16.0,57,0.00,,,0.00,,2013-03-25 15:03:00,
2013-03-25 11:13:00,65.0,49.0,29.94,West,267,5.0,16.0,57,0.00,,,0.00,,2013-03-25 15:13:00,
2013-03-25 11:23:00,66.0,47.0,29.95,WNW,296,7.0,17.0,51,0.00,,,0.00,,2013-03-25 15:23:00,
2013-03-25 11:33:00,67.0,49.0,29.95,West,274,3.0,11.0,53,0.00,,,0.00,,2013-03-25 15:33:00,
2013-03-25 11:43:00,67.0,49.0,29.95,West,274,3.0,11.0,53,0.00,,,0.00,,2013-03-25 15:43:00,
2013-03-25 11:53:00,67.0,49.0,29.95,West,259,8.0,13.0,53,0.00,,,0.00,,2013-03-25 15:53:00,
2013-03-25 12:03:00,68.0,48.0,29.96,SW,223,6.0,14.0,48,0.00,,,0.00,,2013-03-25 16:03:00,
2013-03-25 12:12:00,68.0,48.0,29.96,SW,223,6.0,14.0,48,0.00,,,0.00,,2013-03-25 16:12:00,
2013-03-25 12:23:00,68.0,48.0,29.96,SW,223,6.0,14.0,48,0.00,,,0.00,,2013-03-25 16:23:00,
2013-03-25 12:33:00,70.0,45.0,29.96,North,355,5.0,13.0,41,0.00,,,0.00,,2013-03-25 16:33:00,
2013-03-25 12:43:00,70.0,45.0,29.96,North,355,5.0,13.0,41,0.00,,,0.00,,2013-03-25 16:43:00,
2013-03-25 12:53:00,70.0,42.0,29.95,WNW,288,6.0,15.0,36,0.00,,,0.00,,2013-03-25 16:53:00,
2013-03-25 13:03:00,69.0,35.0,29.95,North,360,6.0,15.0,29,0.00,,,0.00,,2013-03-25 17:03:00,
2013-03-25 13:13:00,69.0,35.0,29.95,North,360,6.0,15.0,29,0.00,,,0.00,,2013-03-25 17:13:00,
2013-03-25 13:24:00,71.0,37.0,29.95,NW,322,4.0,15.0,29,0.00,,,0.00,,2013-03-25 17:24:00,
2013-03-25 13:33:00,71.0,35.0,29.95,SE,142,4.0,19.0,27,0.00,,,0.00,,2013-03-25 17:33:00,
2013-03-25 13:43:00,71.0,35.0,29.95,SE,142,4.0,19.0,27,0.00,,,0.00,,2013-03-25 17:43:00,
2013-03-25 13:52:00,72.0,33.0,29.93,NW,324,6.0,15.0,24,0.00,,,0.00,,2013-03-25 17:52:00,
2013-03-25 14:04:00,72.0,35.0,29.92,NNW,338,6.0,14.0,26,0.00,,,0.00,,2013-03-25 18:04:00,
2013-03-25 14:13:00,72.0,35.0,29.92,NNW,338,6.0,14.0,26,0.00,,,0.00,,2013-03-25 18:13:00,
2013-03-25 14:23:00,73.0,35.0,29.92,West,275,6.0,14.0,25,0.00,,,0.00,,2013-03-25 18:23:00,
2013-03-25 14:33:00,72.0,36.0,29.92,WNW,303,8.0,17.0,27,0.00,,,0.00,,2013-03-25 18:33:00,
2013-03-25 14:43:00,72.0,36.0,29.92,WNW,303,8.0,17.0,27,0.00,,,0.00,,2013-03-25 18:43:00,
2013-03-25 14:53:00,73.0,38.0,29.92,WNW,299,5.0,17.0,28,0.00,,,0.00,,2013-03-25 18:53:00,
2013-03-25 15:03:00,72.0,37.0,29.91,WSW,247,8.0,21.0,28,0.00,,,0.00,,2013-03-25 19:03:00,
2013-03-25 15:13:00,72.0,37.0,29.91,WSW,247,8.0,21.0,28,0.00,,,0.00,,2013-03-25 19:13:00,
2013-03-25 15:23:00,72.0,38.0,29.92,WSW,257,7.0,17.0,29,0.00,,,0.00,,2013-03-25 19:23:00,
2013-03-25 15:33:00,72.0,38.0,29.92,WSW,257,7.0,17.0,29,0.00,,,0.00,,2013-03-25 19:33:00,
2013-03-25 15:43:00,72.0,38.0,29.92,WSW,257,7.0,17.0,29,0.00,,,0.00,,2013-03-25 19:43:00,
2013-03-25 15:53:00,71.0,38.0,29.92,NNE,15,5.0,16.0,30,0.00,,,0.00,,2013-03-25 19:53:00,
2013-03-25 16:02:00,71.0,38.0,29.91,SW,234,7.0,16.0,30,0.00,,,0.00,,2013-03-25 20:02:00,
2013-03-25 16:12:00,71.0,38.0,29.91,SW,234,7.0,16.0,30,0.00,,,0.00,,2013-03-25 20:12:00,
2013-03-25 16:22:00,71.0,38.0,29.91,WNW,292,6.0,15.0,30,0.00,,,0.00,,2013-03-25 20:22:00,
2013-03-25 16:32:00,70.0,38.0,29.91,NNW,334,7.0,15.0,31,0.00,,,0.00,,2013-03-25 20:32:00,
2013-03-25 16:42:00,70.0,38.0,29.91,NNW,334,7.0,15.0,31,0.00,,,0.00,,2013-03-25 20:42:00,
2013-03-25 16:52:00,68.0,38.0,29.92,WNW,298,8.0,23.0,33,0.00,,,0.00,,2013-03-25 20:52:00,
2013-03-25 17:03:00,69.0,39.0,29.92,WSW,252,4.0,14.0,33,0.00,,,0.00,,2013-03-25 21:03:00,
2013-03-25 17:13:00,69.0,39.0,29.92,WSW,252,4.0,14.0,33,0.00,,,0.00,,2013-03-25 21:13:00,
2013-03-25 17:22:00,68.0,37.0,29.92,WNW,302,5.0,15.0,32,0.00,,,0.00,,2013-03-25 21:22:00,
2013-03-25 17:33:00,67.0,34.0,29.92,NW,312,8.0,17.0,29,0.00,,,0.00,,2013-03-25 21:33:00,
2013-03-25 17:43:00,67.0,34.0,29.92,NW,312,8.0,17.0,29,0.00,,,0.00,,2013-03-25 21:43:00,
2013-03-25 17:52:00,66.0,35.0,29.92,West,280,6.0,15.0,32,0.00,,,0.00,,2013-03-25 21:52:00,
2013-03-25 18:03:00,65.0,34.0,29.92,WNW,288,5.0,16.0,32,0.00,,,0.00,,2013-03-25 22:03:00,
2013-03-25 18:13:00,65.0,34.0,29.92,WNW,288,5.0,16.0,32,0.00,,,0.00,,2013-03-25 22:13:00,
2013-03-25 18:23:00,65.0,35.0,29.93,West,264,4.0,15.0,33,0.00,,,0.00,,2013-03-25 22:23:00,
2013-03-25 18:33:00,65.0,35.0,29.93,West,268,3.0,11.0,33,0.00,,,0.00,,2013-03-25 22:33:00,
2013-03-25 18:42:00,65.0,35.0,29.93,West,268,3.0,11.0,33,0.00,,,0.00,,2013-03-25 22:42:00,
2013-03-25 18:52:00,64.0,35.0,29.94,NNW,346,6.0,12.0,34,0.00,,,0.00,,2013-03-25 22:52:00,
2013-03-25 19:03:00,63.0,36.0,29.94,WSW,253,5.0,11.0,36,0.00,,,0.00,,2013-03-25 23:03:00,
2013-03-25 19:12:00,63.0,36.0,29.94,WSW,253,5.0,11.0,36,0.00,,,0.00,,2013-03-25 23:12:00,
2013-03-25 19:23:00,62.0,34.0,29.95,WNW,287,5.0,14.0,35,0.00,,,0.00,,2013-03-25 23:23:00,
2013-03-25 19:32:00,61.0,35.0,29.96,NW,306,6.0,19.0,37,0.00,,,0.00,,2013-03-25 23:32:00,
2013-03-25 19:43:00,61.0,35.0,29.96,NW,306,6.0,19.0,37,0.00,,,0.00,,2013-03-25 23:43:00,
2013-03-25 19:53:00,59.0,35.0,29.96,WNW,299,7.0,13.0,40,0.00,,,0.00,,2013-03-25 23:53:00,
2013-03-25 20:02:00,58.0,35.0,29.97,West,278,5.0,12.0,42,0.00,,,0.00,,2013-03-26 00:02:00,
2013-03-25 20:12:00,58.0,35.0,29.97,West,278,5.0,12.0,42,0.00,,,0.00,,2013-03-26 00:12:00,
2013-03-25 20:22:00,57.0,36.0,29.98,West,265,4.0,9.0,45,0.00,,,0.00,,2013-03-26 00:22:00,
2013-03-25 20:32:00,56.0,37.0,29.98,WNW,292,3.0,9.0,49,0.00,,,0.00,,2013-03-26 00:32:00,
2013-03-25 20:42:00,56.0,37.0,29.98,WNW,292,3.0,9.0,49,0.00,,,0.00,,2013-03-26 00:42:00,
2013-03-25 20:52:00,55.0,38.0,29.99,West,263,4.0,10.0,52,0.00,,,0.00,,2013-03-26 00:52:00,
2013-03-25 21:02:00,55.0,38.0,29.99,WNW,290,4.0,8.0,53,0.00,,,0.00,,2013-03-26 01:02:00,
2013-03-25 21:12:00,55.0,38.0,29.99,WNW,290,4.0,8.0,53,0.00,,,0.00,,2013-03-26 01:12:00,
2013-03-25 21:23:00,55.0,38.0,30.00,West,275,4.0,13.0,53,0.00,,,0.00,,2013-03-26 01:23:00,
2013-03-25 21:32:00,54.0,39.0,30.01,WNW,287,4.0,9.0,56,0.00,,,0.00,,2013-03-26 01:32:00,
2013-03-25 21:42:00,54.0,39.0,30.01,WNW,287,4.0,9.0,56,0.00,,,0.00,,2013-03-26 01:42:00,
2013-03-25 21:53:00,54.0,41.0,30.03,West,275,4.0,11.0,61,0.00,,,0.00,,2013-03-26 01:53:00,
2013-03-25 22:02:00,53.0,41.0,30.03,West,269,4.0,9.0,63,0.00,,,0.00,,2013-03-26 02:02:00,
2013-03-25 22:12:00,53.0,41.0,30.03,West,269,4.0,9.0,63,0.00,,,0.00,,2013-03-26 02:12:00,
2013-03-25 22:22:00,53.0,42.0,30.04,NW,308,4.0,9.0,66,0.00,,,0.00,,2013-03-26 02:22:00,
2013-03-25 22:32:00,53.0,42.0,30.04,West,277,3.0,8.0,67,0.00,,,0.00,,2013-03-26 02:32:00,
2013-03-25 22:43:00,53.0,42.0,30.04,West,277,3.0,8.0,67,0.00,,,0.00,,2013-03-26 02:43:00,
2013-03-25 22:52:00,52.0,43.0,30.05,WNW,288,3.0,6.0,70,0.00,,,0.00,,2013-03-26 02:52:00,
2013-03-25 23:02:00,51.0,42.0,30.05,WNW,284,2.0,6.0,72,0.00,,,0.00,,2013-03-26 03:02:00,
2013-03-25 23:12:00,51.0,42.0,30.05,WNW,284,2.0,6.0,72,0.00,,,0.00,,2013-03-26 03:12:00,
2013-03-25 23:22:00,51.0,43.0,30.06,West,264,2.0,6.0,74,0.00,,,0.00,,2013-03-26 03:22:00,
2013-03-25 23:34:00,50.0,42.0,30.06,West,277,2.0,5.0,75,0.00,,,0.00,,2013-03-26 03:34:00,
2013-03-25 23:42:00,50.0,42.0,30.06,West,277,2.0,5.0,75,0.00,,,0.00,,2013-03-26 03:42:00,
2013-03-25 23:53:00,51.0,43.0,30.06,WNW,302,2.0,6.0,75,0.00,,,0.00,,2013-03-26 03:53:00,